createdAt,value
2018-11-12T00:01:09.551Z,96.67
2018-11-12T00:03:38.161Z,96.37
2018-11-12T00:06:06.783Z,96.63
2018-11-12T00:08:35.262Z,96.14
2018-11-12T00:11:03.701Z,96.31
2018-11-12T00:13:32.117Z,96.57
2018-11-12T00:16:00.488Z,95.70
2018-11-12T00:18:28.973Z,96.38
2018-11-12T00:20:57.345Z,95.83
2018-11-12T00:23:25.776Z,95.96
2018-11-12T00:25:54.226Z,96.28
2018-11-12T00:28:22.704Z,96.52
2018-11-12T00:30:51.150Z,95.86
2018-11-12T00:33:19.612Z,95.94
2018-11-12T00:35:48.011Z,96.33
2018-11-12T00:38:16.409Z,95.78
2018-11-12T00:40:44.820Z,96.44
2018-11-12T00:43:13.277Z,96.14
2018-11-12T00:45:41.670Z,96.47
2018-11-12T00:48:10.087Z,95.85
2018-11-12T00:50:38.485Z,96.22
2018-11-12T00:53:06.883Z,96.24
2018-11-12T00:55:35.349Z,96.93
2018-11-12T00:58:03.775Z,96.89
2018-11-12T01:00:32.186Z,97.01
2018-11-12T01:03:00.601Z,97.00
2018-11-12T01:05:29.026Z,96.49
2018-11-12T01:07:57.512Z,96.32
2018-11-12T01:10:25.947Z,96.91
2018-11-12T01:12:54.409Z,96.99
2018-11-12T01:15:22.847Z,97.13
2018-11-12T01:17:51.349Z,96.58
2018-11-12T01:20:19.768Z,97.09
2018-11-12T01:22:48.206Z,97.02
2018-11-12T01:25:16.749Z,96.27
2018-11-12T01:27:45.488Z,96.19
2018-11-12T01:30:15.277Z,97.03
2018-11-12T01:32:43.939Z,96.70
2018-11-12T01:35:13.452Z,96.23
2018-11-12T01:37:41.853Z,96.99
2018-11-12T01:40:11.446Z,96.57
2018-11-12T01:42:39.976Z,97.10
2018-11-12T01:45:10.461Z,96.59
2018-11-12T01:47:38.913Z,96.71
2018-11-12T01:50:08.861Z,96.74
2018-11-12T01:52:37.268Z,97.21
2018-11-12T01:55:06.842Z,96.74
2018-11-12T01:57:35.243Z,97.05
2018-11-12T02:00:03.822Z,96.78
2018-11-12T02:02:32.192Z,96.82
2018-11-12T02:05:00.755Z,97.06
2018-11-12T02:07:29.061Z,97.05
2018-11-12T02:09:57.528Z,96.90
2018-11-12T02:12:25.998Z,97.63
2018-11-12T02:14:54.437Z,97.90
2018-11-12T02:17:22.838Z,97.54
2018-11-12T02:19:51.253Z,97.29
2018-11-12T02:22:19.685Z,97.48
2018-11-12T02:24:48.076Z,97.33
2018-11-12T02:27:16.516Z,97.31
2018-11-12T02:29:44.938Z,97.85
2018-11-12T02:32:13.392Z,97.90
2018-11-12T02:34:41.819Z,98.26
2018-11-12T02:37:10.255Z,97.45
2018-11-12T02:39:38.682Z,98.12
2018-11-12T02:42:07.124Z,98.21
2018-11-12T02:44:35.561Z,98.21
2018-11-12T02:47:04.078Z,98.09
2018-11-12T02:49:32.501Z,97.92
2018-11-12T02:52:00.932Z,97.93
2018-11-12T02:54:29.324Z,98.36
2018-11-12T02:56:57.833Z,98.60
2018-11-12T02:59:26.304Z,98.61
2018-11-12T03:01:54.725Z,98.78
2018-11-12T03:04:23.181Z,98.26
2018-11-12T03:06:51.664Z,98.71
2018-11-12T03:09:20.071Z,98.27
2018-11-12T03:11:48.489Z,98.03
2018-11-12T03:14:16.884Z,98.94
2018-11-12T03:16:45.263Z,98.55
2018-11-12T03:19:13.686Z,98.85
2018-11-12T03:21:42.064Z,98.72
2018-11-12T03:24:10.483Z,98.38
2018-11-12T03:26:38.837Z,99.00
2018-11-12T03:29:07.301Z,99.04
2018-11-12T03:31:35.745Z,99.07
2018-11-12T03:34:04.125Z,98.37
2018-11-12T03:36:32.536Z,98.42
2018-11-12T03:39:00.893Z,98.88
2018-11-12T03:41:29.400Z,98.49
2018-11-12T03:43:57.788Z,98.83
2018-11-12T03:46:26.221Z,98.77
2018-11-12T03:48:54.608Z,98.64
2018-11-12T03:51:23.565Z,98.64
2018-11-12T03:53:52.025Z,99.13
2018-11-12T03:56:20.451Z,99.26
2018-11-12T03:58:48.808Z,99.08
2018-11-12T04:01:17.389Z,99.11
2018-11-12T04:03:45.780Z,98.58
2018-11-12T04:06:14.212Z,98.56
2018-11-12T04:08:42.593Z,98.91
2018-11-12T04:11:11.013Z,98.66
2018-11-12T04:13:39.423Z,98.63
2018-11-12T04:16:07.846Z,98.45
2018-11-12T04:18:36.273Z,98.51
2018-11-12T04:21:05.024Z,99.10
2018-11-12T04:23:33.498Z,98.83
2018-11-12T04:26:01.917Z,98.63
2018-11-12T04:28:30.379Z,99.18
2018-11-12T04:30:58.804Z,98.74
2018-11-12T04:33:27.213Z,99.40
2018-11-12T04:35:55.621Z,98.59
2018-11-12T04:38:24.012Z,99.22
2018-11-12T04:40:52.469Z,99.00
2018-11-12T04:43:20.917Z,99.48
2018-11-12T04:45:49.341Z,99.60
2018-11-12T04:48:17.768Z,99.56
2018-11-12T04:50:46.244Z,99.33
2018-11-12T04:53:14.657Z,99.92
2018-11-12T04:55:43.054Z,99.08
2018-11-12T04:58:11.447Z,99.19
2018-11-12T05:00:39.851Z,99.64
2018-11-12T05:03:08.284Z,99.96
2018-11-12T05:05:36.809Z,99.85
2018-11-12T05:08:05.376Z,99.28
2018-11-12T05:10:33.873Z,99.27
2018-11-12T05:13:02.293Z,99.68
2018-11-12T05:15:30.698Z,99.80
2018-11-12T05:17:59.126Z,99.23
2018-11-12T05:20:28.823Z,99.54
2018-11-12T05:22:57.267Z,99.53
2018-11-12T05:25:25.766Z,99.81
2018-11-12T05:27:54.482Z,99.98
2018-11-12T05:30:28.210Z,99.51
2018-11-12T05:32:57.206Z,99.81
2018-11-12T05:35:26.911Z,99.94
2018-11-12T05:37:55.452Z,99.43
2018-11-12T05:40:25.073Z,99.99
2018-11-12T05:42:53.529Z,99.29
2018-11-12T05:45:23.466Z,99.98
2018-11-12T05:47:51.997Z,100.00
2018-11-12T05:50:22.663Z,100.00
2018-11-12T05:52:52.316Z,100.00
2018-11-12T05:55:22.214Z,100.00
2018-11-12T05:57:50.632Z,99.73
2018-11-12T06:00:24.203Z,100.00
2018-11-12T06:02:52.608Z,100.00
2018-11-12T06:05:21.045Z,100.00
2018-11-12T06:07:49.476Z,100.00
2018-11-12T06:10:20.165Z,100.00
2018-11-12T06:12:49.818Z,100.00
2018-11-12T06:15:18.728Z,99.62
2018-11-12T06:17:47.945Z,99.73
2018-11-12T06:20:18.702Z,100.00
2018-11-12T06:22:47.318Z,100.00
2018-11-12T06:25:21.193Z,99.76
2018-11-12T06:27:50.081Z,100.00
2018-11-12T06:30:20.014Z,99.80
2018-11-12T06:32:48.604Z,100.00
2018-11-12T06:35:17.592Z,99.88
2018-11-12T06:37:46.873Z,100.00
2018-11-12T06:40:16.531Z,100.00
2018-11-12T06:42:45.264Z,100.00
2018-11-12T06:45:21.921Z,100.00
2018-11-12T06:47:51.309Z,100.00
2018-11-12T06:50:22.104Z,100.00
2018-11-12T06:52:50.570Z,100.00
2018-11-12T06:55:20.357Z,100.00
2018-11-12T06:57:49.218Z,100.00
2018-11-12T07:00:24.036Z,100.00
2018-11-12T07:02:52.544Z,100.00
2018-11-12T07:05:21.362Z,100.00
2018-11-12T07:07:49.936Z,100.00
2018-11-12T07:10:19.708Z,100.00
2018-11-12T07:12:48.891Z,100.00
2018-11-12T07:15:18.848Z,100.00
2018-11-12T07:17:47.260Z,100.00
2018-11-12T07:20:18.213Z,100.00
2018-11-12T07:22:46.801Z,99.92
2018-11-12T07:25:16.267Z,100.00
2018-11-12T07:27:44.677Z,100.00
2018-11-12T07:30:16.537Z,100.00
2018-11-12T07:32:45.567Z,100.00
2018-11-12T07:35:14.944Z,100.00
2018-11-12T07:37:44.589Z,100.00
2018-11-12T07:40:13.865Z,100.00
2018-11-12T07:42:42.668Z,100.00
2018-11-12T07:45:19.578Z,100.00
2018-11-12T07:47:49.911Z,100.00
2018-11-12T07:50:19.642Z,100.00
2018-11-12T07:52:48.070Z,100.00
2018-11-12T07:55:19.556Z,100.00
2018-11-12T07:57:49.094Z,100.00
2018-11-12T08:00:21.535Z,100.00
2018-11-12T08:02:50.938Z,100.00
2018-11-12T08:05:19.347Z,100.00
2018-11-12T08:07:47.748Z,100.00
2018-11-12T08:10:17.529Z,100.00
2018-11-12T08:12:46.312Z,100.00
2018-11-12T08:15:16.794Z,100.00
2018-11-12T08:17:45.288Z,100.00
2018-11-12T08:20:15.978Z,100.00
2018-11-12T08:22:45.675Z,100.00
2018-11-12T08:25:14.245Z,100.00
2018-11-12T08:27:43.359Z,100.00
2018-11-12T08:30:16.026Z,100.00
2018-11-12T08:32:45.457Z,100.00
2018-11-12T08:35:14.348Z,100.00
2018-11-12T08:37:43.009Z,100.00
2018-11-12T08:40:13.132Z,100.00
2018-11-12T08:42:41.924Z,100.00
2018-11-12T08:45:13.580Z,100.00
2018-11-12T08:47:43.449Z,100.00
2018-11-12T08:50:14.127Z,100.00
2018-11-12T08:52:43.721Z,100.00
2018-11-12T08:55:13.955Z,100.00
2018-11-12T08:57:43.905Z,100.00
2018-11-12T09:00:12.967Z,100.00
2018-11-12T09:02:41.743Z,100.00
2018-11-12T09:05:11.658Z,100.00
2018-11-12T09:07:41.282Z,100.00
2018-11-12T09:10:11.763Z,100.00
2018-11-12T09:12:40.879Z,100.00
2018-11-12T09:15:10.184Z,100.00
2018-11-12T09:17:39.501Z,100.00
2018-11-12T09:20:09.339Z,100.00
2018-11-12T09:22:38.033Z,100.00
2018-11-12T09:25:08.633Z,100.00
2018-11-12T09:27:37.138Z,100.00
2018-11-12T09:30:08.304Z,100.00
2018-11-12T09:32:36.746Z,100.00
2018-11-12T09:35:06.013Z,99.97
2018-11-12T09:40:02.896Z,99.74
2018-11-12T09:42:31.391Z,100.00
2018-11-12T09:44:59.864Z,100.00
2018-11-12T09:47:28.302Z,99.77
2018-11-12T09:49:56.835Z,99.56
2018-11-12T09:52:25.270Z,100.00
2018-11-12T09:54:53.718Z,100.00
2018-11-12T09:57:22.113Z,99.54
2018-11-12T09:59:50.543Z,100.00
2018-11-12T10:02:19.579Z,99.80
2018-11-12T10:04:48.642Z,100.00
2018-11-12T10:07:17.372Z,99.99
2018-11-12T10:09:46.710Z,99.90
2018-11-12T10:12:14.880Z,99.09
2018-11-12T10:14:44.008Z,98.38
2018-11-12T10:17:13.161Z,99.03
2018-11-12T10:19:38.319Z,97.92
2018-11-12T10:22:06.721Z,98.59
2018-11-12T10:24:35.213Z,98.12
2018-11-12T10:27:03.672Z,98.27
2018-11-12T10:29:32.085Z,98.41
2018-11-12T10:32:00.614Z,97.53
2018-11-12T10:34:29.034Z,98.06
2018-11-12T10:36:57.530Z,98.02
2018-11-12T10:39:25.945Z,98.16
2018-11-12T10:41:54.400Z,98.21
2018-11-12T10:44:22.843Z,98.04
2018-11-12T10:46:51.238Z,97.22
2018-11-12T10:49:19.685Z,97.36
2018-11-12T10:51:48.116Z,97.91
2018-11-12T10:54:16.667Z,97.41
2018-11-12T10:56:45.687Z,96.95
2018-11-12T10:59:14.073Z,97.27
2018-11-12T11:01:47.775Z,97.28
2018-11-12T11:04:21.498Z,97.16
2018-11-12T11:06:49.893Z,96.84
2018-11-12T11:09:18.310Z,97.24
2018-11-12T11:11:46.743Z,97.73
2018-11-12T11:14:15.174Z,97.00
2018-11-12T11:16:43.679Z,97.10
2018-11-12T11:19:12.080Z,96.91
2018-11-12T11:21:40.500Z,97.25
2018-11-12T11:24:08.923Z,97.67
2018-11-12T11:26:37.453Z,97.91
2018-11-12T11:29:06.157Z,97.39
2018-11-12T11:31:34.629Z,97.79
2018-11-12T11:34:03.115Z,97.23
2018-11-12T11:36:31.583Z,96.90
2018-11-12T11:39:00.029Z,97.69
2018-11-12T11:41:28.463Z,97.02
2018-11-12T11:43:56.976Z,97.50
2018-11-12T11:46:25.388Z,96.96
2018-11-12T11:48:53.877Z,96.49
2018-11-12T11:51:22.270Z,95.94
2018-11-12T11:53:50.688Z,96.00
2018-11-12T11:56:19.123Z,94.93
2018-11-12T11:58:47.579Z,94.33
2018-11-12T12:01:15.996Z,94.07
2018-11-12T12:03:44.405Z,94.06
2018-11-12T12:06:12.843Z,94.20
2018-11-12T12:08:41.347Z,92.43
2018-11-12T12:11:09.756Z,92.98
2018-11-12T12:13:38.172Z,93.77
2018-11-12T12:16:06.698Z,93.82
2018-11-12T12:18:35.140Z,94.00
2018-11-12T12:21:03.797Z,92.95
2018-11-12T12:23:32.180Z,93.23
2018-11-12T12:26:00.672Z,93.77
2018-11-12T12:28:29.083Z,93.99
2018-11-12T12:30:57.564Z,93.30
2018-11-12T12:33:26.019Z,93.96
2018-11-12T12:35:54.576Z,92.55
2018-11-12T12:38:22.943Z,92.86
2018-11-12T12:40:51.389Z,91.68
2018-11-12T12:43:19.810Z,91.27
2018-11-12T12:45:48.411Z,90.95
2018-11-12T12:48:16.688Z,92.23
2018-11-12T12:50:45.099Z,91.80
2018-11-12T12:53:13.564Z,90.34
2018-11-12T12:55:42.140Z,90.83
2018-11-12T12:58:10.644Z,89.96
2018-11-12T13:00:39.130Z,90.16
2018-11-12T13:03:07.573Z,90.15
2018-11-12T13:05:36.064Z,90.94
2018-11-12T13:08:04.630Z,89.99
2018-11-12T13:10:33.052Z,91.23
2018-11-12T13:13:01.505Z,91.95
2018-11-12T13:15:29.982Z,92.37
2018-11-12T13:17:58.457Z,92.90
2018-11-12T13:20:26.961Z,93.30
2018-11-12T13:22:55.426Z,93.57
2018-11-12T13:25:23.876Z,93.59
2018-11-12T13:27:52.923Z,93.53
2018-11-12T13:30:22.611Z,94.12
2018-11-12T13:32:51.267Z,93.80
2018-11-12T13:35:25.081Z,93.68
2018-11-12T13:37:53.604Z,93.25
2018-11-12T13:40:23.386Z,94.14
2018-11-12T13:42:57.293Z,93.43
2018-11-12T13:45:26.296Z,92.70
2018-11-12T13:47:55.143Z,93.07
2018-11-12T13:50:25.055Z,93.33
2018-11-12T13:52:53.949Z,92.89
2018-11-12T13:55:23.427Z,92.64
2018-11-12T13:57:51.980Z,93.91
2018-11-12T14:00:22.100Z,93.68
2018-11-12T14:02:51.269Z,93.55
2018-11-12T14:05:20.973Z,94.94
2018-11-12T14:07:49.517Z,94.75
2018-11-12T14:10:20.496Z,94.41
2018-11-12T14:12:49.681Z,94.83
2018-11-12T14:15:19.877Z,94.75
2018-11-12T14:17:49.005Z,95.42
2018-11-12T14:20:17.682Z,94.85
2018-11-12T14:22:46.089Z,95.26
2018-11-12T14:25:15.720Z,95.03
2018-11-12T14:27:44.914Z,95.67
2018-11-12T14:30:14.990Z,95.61
2018-11-12T14:32:43.582Z,95.32
2018-11-12T14:35:12.755Z,95.21
2018-11-12T14:37:42.094Z,95.47
2018-11-12T14:40:11.846Z,94.91
2018-11-12T14:42:40.464Z,94.98
2018-11-12T14:45:11.004Z,95.82
2018-11-12T14:47:39.468Z,95.05
2018-11-12T14:50:08.073Z,95.60
2018-11-12T14:52:36.589Z,95.01
2018-11-12T14:55:06.151Z,95.20
2018-11-12T14:57:34.629Z,94.90
2018-11-12T15:00:03.277Z,95.45
2018-11-12T15:02:31.718Z,94.76
2018-11-12T15:05:00.199Z,94.95
2018-11-12T15:07:28.645Z,95.05
2018-11-12T15:09:57.044Z,94.78
2018-11-12T15:12:25.514Z,95.49
2018-11-12T15:14:53.981Z,95.79
2018-11-12T15:17:22.398Z,95.50
2018-11-12T15:19:50.860Z,95.11
2018-11-12T15:22:19.360Z,95.49
2018-11-12T15:24:47.813Z,95.16
2018-11-12T15:27:16.269Z,94.71
2018-11-12T15:29:44.693Z,94.71
2018-11-12T15:32:13.146Z,94.40
2018-11-12T15:34:42.262Z,94.20
2018-11-12T15:37:10.921Z,94.33
2018-11-12T15:39:39.240Z,94.21
2018-11-12T15:42:07.870Z,94.48
2018-11-12T15:44:36.340Z,94.05
2018-11-12T15:47:04.898Z,93.99
2018-11-12T15:49:33.425Z,94.74
2018-11-12T15:52:01.923Z,94.93
2018-11-12T15:54:30.398Z,94.81
2018-11-12T15:56:58.926Z,94.99
2018-11-12T15:59:27.328Z,94.76
2018-11-12T16:01:56.365Z,94.77
2018-11-12T16:04:24.804Z,94.08
2018-11-12T16:06:53.282Z,94.12
2018-11-12T16:09:21.760Z,93.96
2018-11-12T16:11:50.229Z,93.75
2018-11-12T16:14:18.633Z,94.64
2018-11-12T16:16:47.145Z,94.73
2018-11-12T16:19:15.632Z,94.39
2018-11-12T16:21:44.079Z,94.98
2018-11-12T16:24:12.570Z,94.47
2018-11-12T16:26:41.148Z,95.08
2018-11-12T16:29:09.589Z,94.75
2018-11-12T16:31:38.028Z,94.65
2018-11-12T16:34:06.465Z,95.26
2018-11-12T16:36:34.881Z,94.54
2018-11-12T16:39:03.521Z,94.66
2018-11-12T16:41:31.966Z,94.88
2018-11-12T16:44:00.536Z,94.86
2018-11-12T16:46:28.985Z,94.73
2018-11-12T16:48:57.418Z,94.48
2018-11-12T16:51:25.866Z,95.23
2018-11-12T16:53:54.327Z,95.34
2018-11-12T16:56:22.824Z,94.68
2018-11-12T16:58:51.218Z,95.42
2018-11-12T17:01:19.666Z,94.40
2018-11-12T17:03:48.064Z,94.60
2018-11-12T17:06:16.508Z,95.20
2018-11-12T17:08:45.908Z,94.78
2018-11-12T17:11:14.397Z,95.12
2018-11-12T17:13:42.923Z,94.42
2018-11-12T17:16:11.563Z,94.53
2018-11-12T17:18:40.135Z,94.59
2018-11-12T17:21:08.560Z,94.65
2018-11-12T17:23:37.017Z,94.85
2018-11-12T17:26:05.515Z,94.16
2018-11-12T17:28:33.961Z,94.75
2018-11-12T17:31:02.589Z,94.37
2018-11-12T17:33:30.939Z,94.11
2018-11-12T17:35:59.431Z,94.34
2018-11-12T17:38:28.027Z,94.01
2018-11-12T17:40:56.502Z,94.01
2018-11-12T17:43:24.999Z,94.51
2018-11-12T17:45:53.460Z,94.57
2018-11-12T17:48:21.935Z,93.64
2018-11-12T17:50:50.453Z,94.31
2018-11-12T17:53:18.925Z,94.21
2018-11-12T17:55:47.384Z,94.34
2018-11-12T17:58:15.841Z,95.08
2018-11-12T18:00:44.319Z,94.78
2018-11-12T18:03:12.752Z,95.09
2018-11-12T18:05:41.256Z,95.74
2018-11-12T18:08:09.888Z,95.28
2018-11-12T18:10:38.309Z,95.71
2018-11-12T18:13:06.828Z,95.80
2018-11-12T18:15:35.306Z,95.90
2018-11-12T18:18:03.828Z,96.13
2018-11-12T18:20:32.265Z,95.62
2018-11-12T18:23:00.746Z,96.20
2018-11-12T18:25:29.187Z,95.42
2018-11-12T18:27:57.704Z,95.72
2018-11-12T18:30:27.753Z,95.75
2018-11-12T18:32:57.122Z,96.38
2018-11-12T18:35:25.614Z,96.43
2018-11-12T18:37:54.100Z,96.36
2018-11-12T18:40:23.995Z,95.67
2018-11-12T18:42:52.533Z,96.01
2018-11-12T18:45:22.165Z,95.52
2018-11-12T18:47:50.644Z,96.31
2018-11-12T18:50:34.549Z,95.79
2018-11-12T18:53:03.024Z,96.14
2018-11-12T18:55:31.542Z,95.76
2018-11-12T18:58:00.259Z,96.25
2018-11-12T19:00:29.317Z,95.95
2018-11-12T19:02:57.896Z,96.33
2018-11-12T19:05:28.035Z,96.57
2018-11-12T19:07:58.101Z,96.10
2018-11-12T19:10:28.202Z,96.24
2018-11-12T19:12:56.689Z,96.15
2018-11-12T19:15:27.655Z,96.33
2018-11-12T19:17:58.772Z,96.89
2018-11-12T19:20:27.253Z,96.75
2018-11-12T19:22:55.897Z,96.85
2018-11-12T19:25:24.666Z,96.32
2018-11-12T19:27:53.202Z,96.75
2018-11-12T19:30:22.956Z,96.74
2018-11-12T19:32:51.423Z,96.26
2018-11-12T19:35:21.387Z,96.51
2018-11-12T19:37:49.872Z,96.58
2018-11-12T19:40:19.566Z,96.42
2018-11-12T19:42:49.165Z,96.97
2018-11-12T19:45:17.726Z,96.35
2018-11-12T19:47:47.416Z,97.18
2018-11-12T19:50:17.166Z,97.03
2018-11-12T19:52:46.797Z,96.46
2018-11-12T19:55:15.566Z,96.98
2018-11-12T19:57:44.441Z,96.81
2018-11-12T20:00:15.144Z,96.56
2018-11-12T20:02:44.584Z,96.62
2018-11-12T20:05:13.120Z,97.28
2018-11-12T20:07:42.162Z,97.31
2018-11-12T20:10:13.351Z,96.62
2018-11-12T20:12:41.916Z,96.72
2018-11-12T20:15:11.540Z,96.72
2018-11-12T20:17:40.848Z,97.24
2018-11-12T20:20:11.715Z,97.19
2018-11-12T20:22:40.237Z,96.95
2018-11-12T20:25:09.633Z,96.43
2018-11-12T20:27:38.077Z,96.44
2018-11-12T20:30:13.441Z,96.46
2018-11-12T20:32:41.901Z,96.40
2018-11-12T20:35:10.512Z,96.37
2018-11-12T20:37:39.263Z,96.37
2018-11-12T20:40:08.589Z,96.29
2018-11-12T20:42:37.072Z,96.35
2018-11-12T20:45:07.258Z,96.52
2018-11-12T20:47:35.691Z,96.91
2018-11-12T20:50:04.254Z,97.15
2018-11-12T20:52:32.894Z,97.26
2018-11-12T20:55:01.383Z,97.21
2018-11-12T20:57:29.859Z,96.50
2018-11-12T20:59:58.286Z,96.92
2018-11-12T21:02:26.862Z,96.44
2018-11-12T21:04:55.769Z,96.96
2018-11-12T21:07:24.257Z,96.68
2018-11-12T21:09:52.738Z,96.57
2018-11-12T21:12:21.308Z,96.61
2018-11-12T21:14:49.742Z,95.58
2018-11-12T21:17:18.190Z,95.71
2018-11-12T21:19:46.649Z,95.81
2018-11-12T21:22:15.617Z,95.80
2018-11-12T21:24:44.426Z,95.83
2018-11-12T21:27:12.967Z,95.47
2018-11-12T21:29:41.530Z,95.39
2018-11-12T21:32:10.050Z,95.49
2018-11-12T21:34:38.495Z,95.72
2018-11-12T21:37:07.137Z,95.57
2018-11-12T21:39:35.516Z,96.06
2018-11-12T21:42:04.070Z,95.91
2018-11-12T21:44:32.483Z,95.78
2018-11-12T21:47:00.925Z,96.38
2018-11-12T21:49:29.477Z,95.76
2018-11-12T21:51:57.884Z,95.63
2018-11-12T21:54:26.367Z,95.55
2018-11-12T21:56:54.857Z,96.04
2018-11-12T21:59:23.345Z,95.77
2018-11-12T22:01:51.734Z,96.21
2018-11-12T22:04:20.213Z,95.56
2018-11-12T22:06:48.773Z,96.14
2018-11-12T22:09:17.177Z,95.85
2018-11-12T22:11:45.626Z,96.19
2018-11-12T22:14:14.090Z,95.88
2018-11-12T22:16:42.516Z,95.92
2018-11-12T22:19:10.978Z,96.11
2018-11-12T22:21:39.367Z,95.93
2018-11-12T22:24:07.849Z,96.59
2018-11-12T22:26:36.267Z,96.78
2018-11-12T22:29:04.689Z,96.69
2018-11-12T22:31:33.122Z,96.63
2018-11-12T22:34:01.603Z,96.09
2018-11-12T22:36:30.068Z,96.19
2018-11-12T22:38:58.534Z,95.84
2018-11-12T22:41:27.276Z,95.85
2018-11-12T22:43:55.961Z,96.24
2018-11-12T22:46:24.399Z,96.75
2018-11-12T22:48:52.872Z,96.94
2018-11-12T22:51:21.371Z,96.58
2018-11-12T22:53:49.904Z,96.85
2018-11-12T22:56:18.336Z,95.91
2018-11-12T22:58:46.778Z,96.73
2018-11-12T23:01:15.231Z,96.82
2018-11-12T23:03:43.756Z,96.75
2018-11-12T23:06:13.160Z,96.48
2018-11-12T23:08:42.527Z,96.63
2018-11-12T23:11:11.105Z,96.67
2018-11-12T23:13:41.787Z,96.67
2018-11-12T23:16:10.221Z,96.15
2018-11-12T23:18:38.613Z,96.80
2018-11-12T23:21:07.090Z,96.91
2018-11-12T23:23:35.720Z,96.16
2018-11-12T23:26:04.194Z,96.72
2018-11-12T23:28:32.665Z,96.88
2018-11-12T23:31:01.080Z,96.41
2018-11-12T23:33:29.716Z,96.29
2018-11-12T23:35:58.196Z,96.42
2018-11-12T23:38:26.625Z,96.64
2018-11-12T23:40:55.065Z,96.48
2018-11-12T23:43:23.488Z,96.95
2018-11-12T23:45:51.927Z,96.88
2018-11-12T23:48:20.402Z,96.79
2018-11-12T23:50:48.846Z,96.72
2018-11-12T23:53:17.212Z,97.14
2018-11-12T23:55:45.682Z,96.62
2018-11-12T23:58:14.135Z,97.08
